sensor_id;sensor_type;location;lat;lon;timestamp;P1;durP1;ratioP1;P2;durP2;ratioP2
4692;SDS011;11710;48.024;16.296;2023-03-01T06:25:08;48.00;;;23.48;;
4692;SDS011;11710;48.024;16.296;2023-03-01T06:27:36;38.88;;;22.55;;
4692;SDS011;11710;48.024;16.296;2023-03-01T06:30:04;44.42;;;23.63;;
4692;SDS011;11710;48.024;16.296;2023-03-01T06:32:32;42.60;;;24.15;;
4692;SDS011;11710;48.024;16.296;2023-03-01T06:34:59;42.63;;;24.00;;
4692;SDS011;11710;48.024;16.296;2023-03-01T06:37:27;46.85;;;25.08;;
4692;SDS011;11710;48.024;16.296;2023-03-01T06:39:54;45.05;;;24.58;;
4692;SDS011;11710;48.024;16.296;2023-03-01T06:42:23;45.05;;;24.20;;
4692;SDS011;11710;48.024;16.296;2023-03-01T06:44:50;41.83;;;22.70;;
4692;SDS011;11710;48.024;16.296;2023-03-01T06:47:18;41.80;;;24.50;;
4692;SDS011;11710;48.024;16.296;2023-03-01T06:49:45;46.67;;;23.63;;
4692;SDS011;11710;48.024;16.296;2023-03-01T06:52:12;45.60;;;23.67;;
4692;SDS011;11710;48.024;16.296;2023-03-01T06:54:40;43.47;;;24.65;;
4692;SDS011;11710;48.024;16.296;2023-03-01T06:57:07;48.00;;;25.50;;
4692;SDS011;11710;48.024;16.296;2023-03-01T06:59:36;41.50;;;24.67;;
4692;SDS011;11710;48.024;16.296;2023-03-01T07:02:03;47.05;;;25.65;;
4692;SDS011;11710;48.024;16.296;2023-03-01T07:04:31;46.38;;;24.98;;
4692;SDS011;11710;48.024;16.296;2023-03-01T07:06:58;48.13;;;26.20;;
4692;SDS011;11710;48.024;16.296;2023-03-01T07:09:26;47.75;;;27.38;;
4692;SDS011;11710;48.024;16.296;2023-03-01T07:11:53;49.85;;;29.05;;
4692;SDS011;11710;48.024;16.296;2023-03-01T07:14:20;53.10;;;27.00;;
4692;SDS011;11710;48.024;16.296;2023-03-01T07:16:51;58.55;;;28.25;;
4692;SDS011;11710;48.024;16.296;2023-03-01T07:19:18;46.10;;;25.67;;
4692;SDS011;11710;48.024;16.296;2023-03-01T07:21:45;46.85;;;25.40;;
4692;SDS011;11710;48.024;16.296;2023-03-01T07:24:13;54.25;;;27.77;;
4692;SDS011;11710;48.024;16.296;2023-03-01T07:26:40;44.22;;;24.90;;
4692;SDS011;11710;48.024;16.296;2023-03-01T07:29:09;46.90;;;25.85;;
4692;SDS011;11710;48.024;16.296;2023-03-01T07:31:36;47.33;;;24.83;;
4692;SDS011;11710;48.024;16.296;2023-03-01T07:34:05;49.22;;;28.38;;
4692;SDS011;11710;48.024;16.296;2023-03-01T07:36:32;50.40;;;27.33;;
4692;SDS011;11710;48.024;16.296;2023-03-01T07:39:00;44.65;;;25.83;;
4692;SDS011;11710;48.024;16.296;2023-03-01T07:41:28;47.60;;;27.70;;
4692;SDS011;11710;48.024;16.296;2023-03-01T07:43:55;52.92;;;27.70;;
4692;SDS011;11710;48.024;16.296;2023-03-01T07:46:22;51.90;;;26.30;;
4692;SDS011;11710;48.024;16.296;2023-03-01T07:48:50;45.60;;;26.42;;
4692;SDS011;11710;48.024;16.296;2023-03-01T07:51:19;51.17;;;28.10;;
4692;SDS011;11710;48.024;16.296;2023-03-01T07:53:46;48.15;;;26.08;;
4692;SDS011;11710;48.024;16.296;2023-03-01T07:56:14;50.55;;;27.10;;
4692;SDS011;11710;48.024;16.296;2023-03-01T07:58:44;53.10;;;28.73;;
4692;SDS011;11710;48.024;16.296;2023-03-01T08:01:12;48.17;;;27.17;;
4692;SDS011;11710;48.024;16.296;2023-03-01T08:03:40;51.95;;;26.58;;
4692;SDS011;11710;48.024;16.296;2023-03-01T08:06:09;53.08;;;28.55;;
4692;SDS011;11710;48.024;16.296;2023-03-01T08:08:38;53.97;;;26.65;;
4692;SDS011;11710;48.024;16.296;2023-03-01T08:11:06;42.55;;;26.15;;
4692;SDS011;11710;48.024;16.296;2023-03-01T08:13:34;48.47;;;26.42;;
4692;SDS011;11710;48.024;16.296;2023-03-01T08:16:02;52.20;;;28.15;;
4692;SDS011;11710;48.024;16.296;2023-03-01T08:18:29;50.22;;;27.77;;
4692;SDS011;11710;48.024;16.296;2023-03-01T08:21:00;48.00;;;28.23;;
4692;SDS011;11710;48.024;16.296;2023-03-01T08:23:28;50.72;;;27.90;;
4692;SDS011;11710;48.024;16.296;2023-03-01T08:26:03;51.92;;;28.98;;
4692;SDS011;11710;48.024;16.296;2023-03-01T08:28:32;50.13;;;27.58;;
4692;SDS011;11710;48.024;16.296;2023-03-01T08:31:00;49.25;;;27.27;;
4692;SDS011;11710;48.024;16.296;2023-03-01T08:33:28;50.47;;;28.27;;
4692;SDS011;11710;48.024;16.296;2023-03-01T08:36:02;51.03;;;28.17;;
4692;SDS011;11710;48.024;16.296;2023-03-01T08:38:31;48.45;;;27.73;;
4692;SDS011;11710;48.024;16.296;2023-03-01T08:40:59;48.42;;;27.85;;
4692;SDS011;11710;48.024;16.296;2023-03-01T08:43:29;49.53;;;27.77;;
4692;SDS011;11710;48.024;16.296;2023-03-01T08:45:56;46.97;;;28.13;;
4692;SDS011;11710;48.024;16.296;2023-03-01T08:48:24;53.33;;;28.98;;
4692;SDS011;11710;48.024;16.296;2023-03-01T08:50:51;49.78;;;29.05;;
4692;SDS011;11710;48.024;16.296;2023-03-01T08:53:19;55.42;;;27.77;;
4692;SDS011;11710;48.024;16.296;2023-03-01T08:55:46;52.63;;;31.55;;
4692;SDS011;11710;48.024;16.296;2023-03-01T08:58:13;52.25;;;29.17;;
4692;SDS011;11710;48.024;16.296;2023-03-01T09:00:42;58.63;;;29.88;;
4692;SDS011;11710;48.024;16.296;2023-03-01T09:03:09;53.63;;;29.48;;
4692;SDS011;11710;48.024;16.296;2023-03-01T09:05:37;54.72;;;30.17;;
4692;SDS011;11710;48.024;16.296;2023-03-01T09:08:04;44.28;;;28.67;;
4692;SDS011;11710;48.024;16.296;2023-03-01T09:10:37;52.35;;;29.52;;
4692;SDS011;11710;48.024;16.296;2023-03-01T09:13:05;61.25;;;30.05;;
4692;SDS011;11710;48.024;16.296;2023-03-01T09:15:32;49.72;;;29.30;;
4692;SDS011;11710;48.024;16.296;2023-03-01T09:18:01;54.92;;;31.05;;
4692;SDS011;11710;48.024;16.296;2023-03-01T09:20:28;53.63;;;29.00;;
4692;SDS011;11710;48.024;16.296;2023-03-01T09:22:57;54.47;;;29.55;;
4692;SDS011;11710;48.024;16.296;2023-03-01T09:25:24;48.78;;;28.70;;
4692;SDS011;11710;48.024;16.296;2023-03-01T09:27:52;48.28;;;29.48;;
4692;SDS011;11710;48.024;16.296;2023-03-01T09:30:19;47.42;;;29.45;;
4692;SDS011;11710;48.024;16.296;2023-03-01T09:32:49;51.97;;;30.70;;
4692;SDS011;11710;48.024;16.296;2023-03-01T09:35:19;50.67;;;30.95;;
4692;SDS011;11710;48.024;16.296;2023-03-01T09:37:48;48.80;;;29.02;;
4692;SDS011;11710;48.024;16.296;2023-03-01T09:40:16;49.65;;;28.73;;
4692;SDS011;11710;48.024;16.296;2023-03-01T09:42:50;47.15;;;28.75;;
4692;SDS011;11710;48.024;16.296;2023-03-01T09:45:21;49.28;;;29.70;;
4692;SDS011;11710;48.024;16.296;2023-03-01T09:47:52;48.13;;;29.17;;
4692;SDS011;11710;48.024;16.296;2023-03-01T09:50:21;46.72;;;28.77;;
4692;SDS011;11710;48.024;16.296;2023-03-01T09:52:50;48.80;;;28.90;;
4692;SDS011;11710;48.024;16.296;2023-03-01T09:55:26;46.42;;;28.52;;
4692;SDS011;11710;48.024;16.296;2023-03-01T09:57:56;48.10;;;28.67;;
4692;SDS011;11710;48.024;16.296;2023-03-01T10:00:33;44.47;;;27.60;;
4692;SDS011;11710;48.024;16.296;2023-03-01T10:03:08;41.75;;;27.45;;
4692;SDS011;11710;48.024;16.296;2023-03-01T10:05:41;61.15;;;29.02;;
4692;SDS011;11710;48.024;16.296;2023-03-01T10:08:21;46.25;;;27.38;;
4692;SDS011;11710;48.024;16.296;2023-03-01T10:10:51;43.15;;;25.45;;
4692;SDS011;11710;48.024;16.296;2023-03-01T10:13:19;41.80;;;24.77;;
4692;SDS011;11710;48.024;16.296;2023-03-01T10:15:50;42.20;;;25.25;;
4692;SDS011;11710;48.024;16.296;2023-03-01T10:18:21;50.10;;;23.85;;
4692;SDS011;11710;48.024;16.296;2023-03-01T10:20:53;43.97;;;24.23;;
4692;SDS011;11710;48.024;16.296;2023-03-01T10:23:22;41.50;;;25.50;;
4692;SDS011;11710;48.024;16.296;2023-03-01T10:25:55;41.17;;;24.48;;
4692;SDS011;11710;48.024;16.296;2023-03-01T10:28:25;43.35;;;24.42;;
4692;SDS011;11710;48.024;16.296;2023-03-01T10:30:52;43.15;;;24.00;;
4692;SDS011;11710;48.024;16.296;2023-03-01T10:33:21;40.35;;;25.08;;
4692;SDS011;11710;48.024;16.296;2023-03-01T10:35:49;37.33;;;24.65;;
4692;SDS011;11710;48.024;16.296;2023-03-01T10:38:18;36.90;;;25.90;;
4692;SDS011;11710;48.024;16.296;2023-03-01T10:40:50;41.42;;;25.50;;
4692;SDS011;11710;48.024;16.296;2023-03-01T10:43:18;39.88;;;25.23;;
4692;SDS011;11710;48.024;16.296;2023-03-01T10:45:46;41.97;;;26.20;;
4692;SDS011;11710;48.024;16.296;2023-03-01T10:48:14;39.47;;;25.10;;
4692;SDS011;11710;48.024;16.296;2023-03-01T10:50:43;37.00;;;23.10;;
4692;SDS011;11710;48.024;16.296;2023-03-01T10:56:02;34.50;;;21.75;;
4692;SDS011;11710;48.024;16.296;2023-03-01T10:58:30;32.90;;;22.30;;
4692;SDS011;11710;48.024;16.296;2023-03-01T11:00:58;32.40;;;22.45;;
4692;SDS011;11710;48.024;16.296;2023-03-01T11:03:27;32.38;;;21.20;;
4692;SDS011;11710;48.024;16.296;2023-03-01T11:06:00;39.22;;;23.23;;
4692;SDS011;11710;48.024;16.296;2023-03-01T11:08:35;33.35;;;23.20;;
4692;SDS011;11710;48.024;16.296;2023-03-01T11:11:06;36.20;;;23.45;;
4692;SDS011;11710;48.024;16.296;2023-03-01T11:13:33;35.95;;;24.25;;
4692;SDS011;11710;48.024;16.296;2023-03-01T11:16:03;36.58;;;23.80;;
4692;SDS011;11710;48.024;16.296;2023-03-01T11:18:31;53.88;;;30.95;;
4692;SDS011;11710;48.024;16.296;2023-03-01T11:20:59;35.25;;;22.90;;
4692;SDS011;11710;48.024;16.296;2023-03-01T11:23:28;36.72;;;22.27;;
4692;SDS011;11710;48.024;16.296;2023-03-01T11:25:57;33.63;;;22.45;;
4692;SDS011;11710;48.024;16.296;2023-03-01T11:28:27;32.70;;;23.55;;
4692;SDS011;11710;48.024;16.296;2023-03-01T11:30:57;42.33;;;22.67;;
4692;SDS011;11710;48.024;16.296;2023-03-01T11:33:29;35.70;;;23.13;;
4692;SDS011;11710;48.024;16.296;2023-03-01T11:36:01;34.58;;;21.88;;
4692;SDS011;11710;48.024;16.296;2023-03-01T11:38:30;34.92;;;22.42;;
4692;SDS011;11710;48.024;16.296;2023-03-01T11:41:01;36.78;;;21.88;;
4692;SDS011;11710;48.024;16.296;2023-03-01T11:43:35;33.92;;;21.52;;
4692;SDS011;11710;48.024;16.296;2023-03-01T11:46:15;34.67;;;21.25;;
4692;SDS011;11710;48.024;16.296;2023-03-01T11:48:47;36.70;;;23.38;;
4692;SDS011;11710;48.024;16.296;2023-03-01T11:51:20;39.60;;;23.20;;
4692;SDS011;11710;48.024;16.296;2023-03-01T11:53:54;34.88;;;21.58;;
4692;SDS011;11710;48.024;16.296;2023-03-01T11:56:25;35.72;;;22.08;;
4692;SDS011;11710;48.024;16.296;2023-03-01T12:01:47;38.22;;;23.35;;
4692;SDS011;11710;48.024;16.296;2023-03-01T12:04:24;38.03;;;23.20;;
4692;SDS011;11710;48.024;16.296;2023-03-01T12:06:56;35.08;;;22.95;;
4692;SDS011;11710;48.024;16.296;2023-03-01T12:09:29;36.45;;;22.98;;
4692;SDS011;11710;48.024;16.296;2023-03-01T12:12:02;36.35;;;22.77;;
4692;SDS011;11710;48.024;16.296;2023-03-01T12:17:24;33.85;;;21.80;;
4692;SDS011;11710;48.024;16.296;2023-03-01T12:20:00;37.13;;;22.40;;
4692;SDS011;11710;48.024;16.296;2023-03-01T12:22:34;39.97;;;22.70;;
4692;SDS011;11710;48.024;16.296;2023-03-01T12:27:57;37.70;;;23.10;;
4692;SDS011;11710;48.024;16.296;2023-03-01T12:30:32;38.05;;;22.90;;
4692;SDS011;11710;48.024;16.296;2023-03-01T12:33:08;47.17;;;24.02;;
4692;SDS011;11710;48.024;16.296;2023-03-01T12:38:32;33.53;;;22.58;;
4692;SDS011;11710;48.024;16.296;2023-03-01T12:41:13;38.63;;;23.35;;
4692;SDS011;11710;48.024;16.296;2023-03-01T12:43:48;40.47;;;23.10;;
4692;SDS011;11710;48.024;16.296;2023-03-01T12:46:23;36.70;;;23.23;;
4692;SDS011;11710;48.024;16.296;2023-03-01T12:48:56;38.42;;;23.75;;
4692;SDS011;11710;48.024;16.296;2023-03-01T12:51:28;38.22;;;22.77;;
4692;SDS011;11710;48.024;16.296;2023-03-01T12:53:57;37.05;;;23.65;;
4692;SDS011;11710;48.024;16.296;2023-03-01T12:56:27;35.40;;;22.65;;
4692;SDS011;11710;48.024;16.296;2023-03-01T12:58:57;34.80;;;22.55;;
4692;SDS011;11710;48.024;16.296;2023-03-01T13:01:31;34.58;;;21.77;;
4692;SDS011;11710;48.024;16.296;2023-03-01T13:06:47;36.95;;;22.95;;
4692;SDS011;11710;48.024;16.296;2023-03-01T13:09:18;33.63;;;22.35;;
4692;SDS011;11710;48.024;16.296;2023-03-01T13:11:48;35.08;;;22.80;;
4692;SDS011;11710;48.024;16.296;2023-03-01T13:17:01;33.88;;;21.95;;
4692;SDS011;11710;48.024;16.296;2023-03-01T13:19:29;33.80;;;21.90;;
4692;SDS011;11710;48.024;16.296;2023-03-01T13:21:59;32.33;;;20.52;;
4692;SDS011;11710;48.024;16.296;2023-03-01T13:24:27;34.97;;;20.95;;
4692;SDS011;11710;48.024;16.296;2023-03-01T13:27:11;35.22;;;21.30;;
4692;SDS011;11710;48.024;16.296;2023-03-01T13:29:45;36.08;;;22.23;;
4692;SDS011;11710;48.024;16.296;2023-03-01T13:32:20;43.40;;;22.85;;
4692;SDS011;11710;48.024;16.296;2023-03-01T13:34:51;36.78;;;22.25;;
4692;SDS011;11710;48.024;16.296;2023-03-01T13:37:22;35.85;;;22.13;;
4692;SDS011;11710;48.024;16.296;2023-03-01T13:39:51;35.88;;;21.63;;
4692;SDS011;11710;48.024;16.296;2023-03-01T13:42:32;37.33;;;21.33;;
4692;SDS011;11710;48.024;16.296;2023-03-01T13:45:02;31.85;;;20.33;;
4692;SDS011;11710;48.024;16.296;2023-03-01T13:47:30;28.90;;;18.40;;
4692;SDS011;11710;48.024;16.296;2023-03-01T13:50:00;34.17;;;20.52;;
4692;SDS011;11710;48.024;16.296;2023-03-01T13:52:34;30.75;;;19.83;;
4692;SDS011;11710;48.024;16.296;2023-03-01T13:55:03;33.30;;;20.55;;
4692;SDS011;11710;48.024;16.296;2023-03-01T13:57:33;34.90;;;19.42;;
4692;SDS011;11710;48.024;16.296;2023-03-01T14:00:02;27.63;;;19.75;;
4692;SDS011;11710;48.024;16.296;2023-03-01T14:02:29;30.10;;;20.52;;
4692;SDS011;11710;48.024;16.296;2023-03-01T14:04:59;29.67;;;20.05;;
4692;SDS011;11710;48.024;16.296;2023-03-01T14:07:27;26.52;;;18.38;;
4692;SDS011;11710;48.024;16.296;2023-03-01T14:09:58;30.42;;;18.58;;
4692;SDS011;11710;48.024;16.296;2023-03-01T14:12:30;29.52;;;18.10;;
4692;SDS011;11710;48.024;16.296;2023-03-01T14:15:02;32.25;;;19.15;;
4692;SDS011;11710;48.024;16.296;2023-03-01T14:17:37;31.35;;;19.42;;
4692;SDS011;11710;48.024;16.296;2023-03-01T14:20:09;29.58;;;17.75;;
4692;SDS011;11710;48.024;16.296;2023-03-01T14:22:38;26.10;;;17.58;;
4692;SDS011;11710;48.024;16.296;2023-03-01T14:25:19;27.42;;;17.52;;
4692;SDS011;11710;48.024;16.296;2023-03-01T14:27:50;28.23;;;18.88;;
4692;SDS011;11710;48.024;16.296;2023-03-01T14:30:19;34.05;;;20.85;;
4692;SDS011;11710;48.024;16.296;2023-03-01T14:32:52;33.15;;;20.23;;
4692;SDS011;11710;48.024;16.296;2023-03-01T14:35:20;35.35;;;20.48;;
4692;SDS011;11710;48.024;16.296;2023-03-01T14:37:48;29.77;;;20.15;;
4692;SDS011;11710;48.024;16.296;2023-03-01T14:40:24;28.83;;;19.75;;
4692;SDS011;11710;48.024;16.296;2023-03-01T14:42:52;29.00;;;18.23;;
4692;SDS011;11710;48.024;16.296;2023-03-01T14:45:21;29.67;;;18.45;;
4692;SDS011;11710;48.024;16.296;2023-03-01T14:47:48;30.08;;;18.27;;
4692;SDS011;11710;48.024;16.296;2023-03-01T14:50:18;32.97;;;18.98;;
4692;SDS011;11710;48.024;16.296;2023-03-01T14:52:48;36.85;;;21.38;;
4692;SDS011;11710;48.024;16.296;2023-03-01T14:55:18;32.97;;;20.50;;
4692;SDS011;11710;48.024;16.296;2023-03-01T14:57:48;32.40;;;19.25;;
4692;SDS011;11710;48.024;16.296;2023-03-01T15:00:17;31.50;;;19.48;;
4692;SDS011;11710;48.024;16.296;2023-03-01T15:02:46;31.80;;;18.67;;
4692;SDS011;11710;48.024;16.296;2023-03-01T15:05:14;26.38;;;18.25;;
4692;SDS011;11710;48.024;16.296;2023-03-01T15:07:42;30.23;;;18.02;;
4692;SDS011;11710;48.024;16.296;2023-03-01T15:10:16;24.73;;;16.50;;
4692;SDS011;11710;48.024;16.296;2023-03-01T15:12:44;25.20;;;16.95;;
4692;SDS011;11710;48.024;16.296;2023-03-01T15:18:15;23.13;;;16.33;;
4692;SDS011;11710;48.024;16.296;2023-03-01T15:20:43;26.48;;;17.08;;
4692;SDS011;11710;48.024;16.296;2023-03-01T15:23:16;28.35;;;16.88;;
4692;SDS011;11710;48.024;16.296;2023-03-01T15:25:45;27.42;;;18.38;;
4692;SDS011;11710;48.024;16.296;2023-03-01T15:28:21;23.40;;;16.02;;
4692;SDS011;11710;48.024;16.296;2023-03-01T15:30:52;23.73;;;16.75;;
4692;SDS011;11710;48.024;16.296;2023-03-01T15:33:27;25.30;;;16.98;;
4692;SDS011;11710;48.024;16.296;2023-03-01T15:35:56;26.88;;;16.85;;
4692;SDS011;11710;48.024;16.296;2023-03-01T15:38:28;26.77;;;17.20;;
4692;SDS011;11710;48.024;16.296;2023-03-01T15:40:57;29.00;;;17.20;;
4692;SDS011;11710;48.024;16.296;2023-03-01T15:43:41;26.73;;;17.13;;
4692;SDS011;11710;48.024;16.296;2023-03-01T15:46:19;26.73;;;16.88;;
4692;SDS011;11710;48.024;16.296;2023-03-01T15:48:50;30.27;;;16.92;;
4692;SDS011;11710;48.024;16.296;2023-03-01T15:51:21;27.55;;;16.80;;
4692;SDS011;11710;48.024;16.296;2023-03-01T15:53:50;27.98;;;16.88;;
4692;SDS011;11710;48.024;16.296;2023-03-01T15:56:18;28.95;;;16.98;;
4692;SDS011;11710;48.024;16.296;2023-03-01T15:58:46;28.27;;;15.57;;
4692;SDS011;11710;48.024;16.296;2023-03-01T16:01:14;26.58;;;16.38;;
4692;SDS011;11710;48.024;16.296;2023-03-01T16:03:43;29.38;;;18.02;;
4692;SDS011;11710;48.024;16.296;2023-03-01T16:06:12;27.20;;;17.35;;
4692;SDS011;11710;48.024;16.296;2023-03-01T16:08:39;28.98;;;17.25;;
4692;SDS011;11710;48.024;16.296;2023-03-01T16:11:10;33.88;;;20.30;;
4692;SDS011;11710;48.024;16.296;2023-03-01T16:13:40;38.88;;;21.27;;
4692;SDS011;11710;48.024;16.296;2023-03-01T16:16:08;39.70;;;24.40;;
4692;SDS011;11710;48.024;16.296;2023-03-01T16:18:37;38.90;;;22.73;;
4692;SDS011;11710;48.024;16.296;2023-03-01T16:21:05;35.13;;;22.48;;
4692;SDS011;11710;48.024;16.296;2023-03-01T16:23:34;37.63;;;23.40;;
4692;SDS011;11710;48.024;16.296;2023-03-01T16:26:01;39.92;;;22.85;;
4692;SDS011;11710;48.024;16.296;2023-03-01T16:28:28;33.05;;;21.90;;
4692;SDS011;11710;48.024;16.296;2023-03-01T16:30:56;37.13;;;22.20;;
4692;SDS011;11710;48.024;16.296;2023-03-01T16:33:24;34.78;;;23.85;;
4692;SDS011;11710;48.024;16.296;2023-03-01T16:35:51;34.08;;;23.10;;
4692;SDS011;11710;48.024;16.296;2023-03-01T16:38:18;41.17;;;24.30;;
4692;SDS011;11710;48.024;16.296;2023-03-01T16:40:47;39.33;;;23.38;;
4692;SDS011;11710;48.024;16.296;2023-03-01T16:43:15;39.53;;;24.33;;
4692;SDS011;11710;48.024;16.296;2023-03-01T16:45:42;36.67;;;22.17;;
4692;SDS011;11710;48.024;16.296;2023-03-01T16:48:11;39.72;;;22.60;;
4692;SDS011;11710;48.024;16.296;2023-03-01T16:50:40;36.75;;;22.55;;
4692;SDS011;11710;48.024;16.296;2023-03-01T16:53:09;38.45;;;24.73;;
4692;SDS011;11710;48.024;16.296;2023-03-01T16:55:37;37.92;;;23.38;;
4692;SDS011;11710;48.024;16.296;2023-03-01T16:58:11;37.60;;;23.98;;
4692;SDS011;11710;48.024;16.296;2023-03-01T17:00:40;43.92;;;26.25;;
4692;SDS011;11710;48.024;16.296;2023-03-01T17:03:08;56.92;;;31.33;;
4692;SDS011;11710;48.024;16.296;2023-03-01T17:05:35;41.85;;;27.20;;
4692;SDS011;11710;48.024;16.296;2023-03-01T17:08:02;45.17;;;25.75;;
4692;SDS011;11710;48.024;16.296;2023-03-01T17:10:30;42.83;;;26.00;;
4692;SDS011;11710;48.024;16.296;2023-03-01T17:12:57;54.22;;;30.60;;
4692;SDS011;11710;48.024;16.296;2023-03-01T17:15:26;56.13;;;29.80;;
4692;SDS011;11710;48.024;16.296;2023-03-01T17:17:53;64.60;;;29.33;;
4692;SDS011;11710;48.024;16.296;2023-03-01T17:20:21;91.93;;;36.95;;
4692;SDS011;11710;48.024;16.296;2023-03-01T17:22:48;69.65;;;33.72;;
4692;SDS011;11710;48.024;16.296;2023-03-01T17:25:16;61.38;;;31.25;;
4692;SDS011;11710;48.024;16.296;2023-03-01T17:27:44;49.45;;;28.42;;
4692;SDS011;11710;48.024;16.296;2023-03-01T17:30:12;50.67;;;28.23;;
4692;SDS011;11710;48.024;16.296;2023-03-01T17:32:41;46.50;;;28.55;;
4692;SDS011;11710;48.024;16.296;2023-03-01T17:35:08;44.13;;;28.85;;
4692;SDS011;11710;48.024;16.296;2023-03-01T17:37:37;45.47;;;27.85;;
4692;SDS011;11710;48.024;16.296;2023-03-01T17:40:10;37.80;;;24.63;;
4692;SDS011;11710;48.024;16.296;2023-03-01T17:42:38;41.95;;;26.05;;
4692;SDS011;11710;48.024;16.296;2023-03-01T17:45:06;37.25;;;24.42;;
4692;SDS011;11710;48.024;16.296;2023-03-01T17:47:34;38.88;;;24.95;;
4692;SDS011;11710;48.024;16.296;2023-03-01T17:50:03;41.08;;;25.33;;
4692;SDS011;11710;48.024;16.296;2023-03-01T17:52:32;43.80;;;26.40;;
4692;SDS011;11710;48.024;16.296;2023-03-01T17:54:59;44.67;;;26.60;;
4692;SDS011;11710;48.024;16.296;2023-03-01T17:57:27;45.58;;;27.02;;
4692;SDS011;11710;48.024;16.296;2023-03-01T17:59:54;50.05;;;29.10;;
4692;SDS011;11710;48.024;16.296;2023-03-01T18:02:22;41.85;;;28.08;;
4692;SDS011;11710;48.024;16.296;2023-03-01T18:04:50;42.70;;;27.83;;
4692;SDS011;11710;48.024;16.296;2023-03-01T18:07:24;46.08;;;29.40;;
4692;SDS011;11710;48.024;16.296;2023-03-01T18:09:54;38.00;;;27.17;;
4692;SDS011;11710;48.024;16.296;2023-03-01T18:12:22;45.65;;;27.60;;
4692;SDS011;11710;48.024;16.296;2023-03-01T18:14:49;42.80;;;27.83;;
4692;SDS011;11710;48.024;16.296;2023-03-01T18:17:18;41.65;;;26.70;;
4692;SDS011;11710;48.024;16.296;2023-03-01T18:19:45;49.75;;;32.00;;
4692;SDS011;11710;48.024;16.296;2023-03-01T18:22:13;48.05;;;33.40;;
4692;SDS011;11710;48.024;16.296;2023-03-01T18:24:42;43.97;;;29.48;;
4692;SDS011;11710;48.024;16.296;2023-03-01T18:27:10;43.90;;;30.25;;
4692;SDS011;11710;48.024;16.296;2023-03-01T18:29:37;46.60;;;29.63;;
4692;SDS011;11710;48.024;16.296;2023-03-01T18:32:05;40.47;;;29.90;;
4692;SDS011;11710;48.024;16.296;2023-03-01T18:34:33;45.60;;;28.98;;
4692;SDS011;11710;48.024;16.296;2023-03-01T18:37:00;45.33;;;28.60;;
4692;SDS011;11710;48.024;16.296;2023-03-01T18:39:27;45.67;;;30.63;;
4692;SDS011;11710;48.024;16.296;2023-03-01T18:41:56;48.30;;;30.50;;
4692;SDS011;11710;48.024;16.296;2023-03-01T18:44:24;48.75;;;31.10;;
4692;SDS011;11710;48.024;16.296;2023-03-01T18:46:51;62.30;;;37.45;;
4692;SDS011;11710;48.024;16.296;2023-03-01T18:49:21;60.22;;;35.72;;
4692;SDS011;11710;48.024;16.296;2023-03-01T18:51:52;57.03;;;36.47;;
4692;SDS011;11710;48.024;16.296;2023-03-01T18:54:22;68.32;;;41.10;;
4692;SDS011;11710;48.024;16.296;2023-03-01T18:56:54;69.75;;;43.00;;
4692;SDS011;11710;48.024;16.296;2023-03-01T18:59:25;69.32;;;41.45;;
4692;SDS011;11710;48.024;16.296;2023-03-01T19:01:54;75.60;;;47.17;;
4692;SDS011;11710;48.024;16.296;2023-03-01T19:04:21;61.83;;;37.97;;
4692;SDS011;11710;48.024;16.296;2023-03-01T19:06:48;52.97;;;33.42;;
4692;SDS011;11710;48.024;16.296;2023-03-01T19:09:16;48.25;;;31.95;;
4692;SDS011;11710;48.024;16.296;2023-03-01T19:11:44;51.67;;;31.50;;
4692;SDS011;11710;48.024;16.296;2023-03-01T19:14:11;44.90;;;29.17;;
4692;SDS011;11710;48.024;16.296;2023-03-01T19:16:40;52.50;;;30.75;;
4692;SDS011;11710;48.024;16.296;2023-03-01T19:19:12;49.05;;;29.90;;
4692;SDS011;11710;48.024;16.296;2023-03-01T19:21:40;44.17;;;28.85;;
4692;SDS011;11710;48.024;16.296;2023-03-01T19:24:07;48.13;;;30.10;;
4692;SDS011;11710;48.024;16.296;2023-03-01T19:26:35;46.28;;;29.48;;
4692;SDS011;11710;48.024;16.296;2023-03-01T19:29:05;53.45;;;31.40;;
4692;SDS011;11710;48.024;16.296;2023-03-01T19:31:36;53.53;;;31.92;;
4692;SDS011;11710;48.024;16.296;2023-03-01T19:34:05;49.03;;;33.80;;
4692;SDS011;11710;48.024;16.296;2023-03-01T19:36:32;56.65;;;35.47;;
4692;SDS011;11710;48.024;16.296;2023-03-01T19:39:02;60.03;;;38.33;;
4692;SDS011;11710;48.024;16.296;2023-03-01T19:41:30;65.72;;;37.88;;
4692;SDS011;11710;48.024;16.296;2023-03-01T19:43:57;61.22;;;37.00;;
4692;SDS011;11710;48.024;16.296;2023-03-01T19:46:28;52.60;;;32.80;;
4692;SDS011;11710;48.024;16.296;2023-03-01T19:48:56;57.25;;;34.55;;
4692;SDS011;11710;48.024;16.296;2023-03-01T19:51:26;53.20;;;31.77;;
4692;SDS011;11710;48.024;16.296;2023-03-01T19:53:54;56.50;;;34.22;;
4692;SDS011;11710;48.024;16.296;2023-03-01T19:56:22;47.42;;;31.50;;
4692;SDS011;11710;48.024;16.296;2023-03-01T19:58:50;48.67;;;32.08;;
4692;SDS011;11710;48.024;16.296;2023-03-01T20:01:24;60.00;;;36.30;;
4692;SDS011;11710;48.024;16.296;2023-03-01T20:03:53;53.33;;;34.50;;
4692;SDS011;11710;48.024;16.296;2023-03-01T20:06:21;53.45;;;33.95;;
4692;SDS011;11710;48.024;16.296;2023-03-01T20:08:51;53.92;;;33.35;;
4692;SDS011;11710;48.024;16.296;2023-03-01T20:11:19;53.88;;;34.33;;
4692;SDS011;11710;48.024;16.296;2023-03-01T20:13:46;54.70;;;31.67;;
4692;SDS011;11710;48.024;16.296;2023-03-01T20:16:14;47.28;;;30.77;;
4692;SDS011;11710;48.024;16.296;2023-03-01T20:18:42;43.72;;;27.52;;
4692;SDS011;11710;48.024;16.296;2023-03-01T20:21:09;45.65;;;27.85;;
4692;SDS011;11710;48.024;16.296;2023-03-01T20:23:37;44.88;;;28.17;;
